sensor_id;sensor_type;location;lat;lon;timestamp;pressure;altitude;pressure_sealevel;temperature;humidity
63194;BME280;49289;51.670;5.624;2022-12-18T00:00:17;102992.90;;;1.18;55.77
63194;BME280;49289;51.670;5.624;2022-12-18T00:02:04;103012.52;;;1.29;55.78
63194;BME280;49289;51.670;5.624;2022-12-18T00:03:51;103016.39;;;1.27;55.77
63194;BME280;49289;51.670;5.624;2022-12-18T00:05:45;102997.70;;;1.10;55.91
63194;BME280;49289;51.670;5.624;2022-12-18T00:07:25;103022.29;;;1.22;56.00
63194;BME280;49289;51.670;5.624;2022-12-18T00:09:12;103028.66;;;1.25;55.90
63194;BME280;49289;51.670;5.624;2022-12-18T00:11:00;103032.99;;;1.27;55.76
63194;BME280;49289;51.670;5.624;2022-12-18T00:12:49;103031.45;;;1.31;55.59
63194;BME280;49289;51.670;5.624;2022-12-18T00:14:37;103027.78;;;1.21;55.72
63194;BME280;49289;51.670;5.624;2022-12-18T00:16:25;103013.52;;;1.14;55.63
63194;BME280;49289;51.670;5.624;2022-12-18T00:18:11;102998.72;;;0.98;55.64
63194;BME280;49289;51.670;5.624;2022-12-18T00:19:58;103018.37;;;1.13;55.54
63194;BME280;49289;51.670;5.624;2022-12-18T00:21:45;103023.83;;;1.07;55.59
63194;BME280;49289;51.670;5.624;2022-12-18T00:23:33;103025.53;;;1.05;55.58
63194;BME280;49289;51.670;5.624;2022-12-18T00:25:20;102995.16;;;0.89;55.33
63194;BME280;49289;51.670;5.624;2022-12-18T00:27:07;102997.41;;;0.76;55.69
63194;BME280;49289;51.670;5.624;2022-12-18T00:28:54;102996.27;;;0.69;55.68
63194;BME280;49289;51.670;5.624;2022-12-18T00:30:41;103013.09;;;0.81;55.84
63194;BME280;49289;51.670;5.624;2022-12-18T00:32:28;103005.56;;;0.81;55.67
63194;BME280;49289;51.670;5.624;2022-12-18T00:34:15;103010.08;;;0.81;55.54
63194;BME280;49289;51.670;5.624;2022-12-18T00:36:06;103009.37;;;0.87;55.57
63194;BME280;49289;51.670;5.624;2022-12-18T00:37:54;102992.16;;;0.75;55.48
63194;BME280;49289;51.670;5.624;2022-12-18T00:39:42;102986.11;;;0.71;55.42
63194;BME280;49289;51.670;5.624;2022-12-18T00:41:30;103001.17;;;0.85;55.48
63194;BME280;49289;51.670;5.624;2022-12-18T00:43:18;102984.31;;;0.70;55.33
63194;BME280;49289;51.670;5.624;2022-12-18T00:45:06;103008.57;;;0.81;55.38
63194;BME280;49289;51.670;5.624;2022-12-18T00:46:55;102988.79;;;0.63;55.63
63194;BME280;49289;51.670;5.624;2022-12-18T00:48:43;102994.55;;;0.63;55.64
63194;BME280;49289;51.670;5.624;2022-12-18T00:50:30;103012.11;;;0.63;55.91
63194;BME280;49289;51.670;5.624;2022-12-18T00:52:17;103007.14;;;0.68;55.83
63194;BME280;49289;51.670;5.624;2022-12-18T00:54:04;103012.67;;;0.66;55.88
63194;BME280;49289;51.670;5.624;2022-12-18T00:55:52;103009.08;;;0.62;55.88
63194;BME280;49289;51.670;5.624;2022-12-18T00:57:40;103005.92;;;0.64;55.93
63194;BME280;49289;51.670;5.624;2022-12-18T00:59:28;103005.34;;;0.71;55.90
63194;BME280;49289;51.670;5.624;2022-12-18T01:01:17;103000.61;;;0.73;55.79
63194;BME280;49289;51.670;5.624;2022-12-18T01:03:04;102997.98;;;0.75;55.84
63194;BME280;49289;51.670;5.624;2022-12-18T01:04:51;103001.07;;;0.77;55.87
63194;BME280;49289;51.670;5.624;2022-12-18T01:06:38;103004.86;;;0.72;55.84
63194;BME280;49289;51.670;5.624;2022-12-18T01:08:25;102988.82;;;0.60;55.92
63194;BME280;49289;51.670;5.624;2022-12-18T01:10:13;103006.91;;;0.72;55.91
63194;BME280;49289;51.670;5.624;2022-12-18T01:12:02;103011.14;;;0.76;55.96
63194;BME280;49289;51.670;5.624;2022-12-18T01:13:50;103018.55;;;0.82;55.80
63194;BME280;49289;51.670;5.624;2022-12-18T01:15:38;103023.25;;;0.75;55.91
63194;BME280;49289;51.670;5.624;2022-12-18T01:17:26;103005.13;;;0.65;55.76
63194;BME280;49289;51.670;5.624;2022-12-18T01:19:13;103006.61;;;0.68;55.80
63194;BME280;49289;51.670;5.624;2022-12-18T01:21:00;103028.38;;;0.70;55.81
63194;BME280;49289;51.670;5.624;2022-12-18T01:22:47;103034.05;;;0.71;55.72
63194;BME280;49289;51.670;5.624;2022-12-18T01:24:34;103029.39;;;0.63;55.74
63194;BME280;49289;51.670;5.624;2022-12-18T01:26:21;103006.55;;;0.59;55.60
63194;BME280;49289;51.670;5.624;2022-12-18T01:28:08;103023.64;;;0.63;55.64
63194;BME280;49289;51.670;5.624;2022-12-18T01:29:56;103024.24;;;0.65;55.57
63194;BME280;49289;51.670;5.624;2022-12-18T01:31:45;103023.46;;;0.68;55.43
63194;BME280;49289;51.670;5.624;2022-12-18T01:33:33;103025.03;;;0.63;55.36
63194;BME280;49289;51.670;5.624;2022-12-18T01:35:20;103023.50;;;0.60;55.41
63194;BME280;49289;51.670;5.624;2022-12-18T01:37:08;103018.92;;;0.66;55.39
63194;BME280;49289;51.670;5.624;2022-12-18T01:38:58;103000.79;;;0.53;55.55
63194;BME280;49289;51.670;5.624;2022-12-18T01:40:44;102992.87;;;0.53;55.46
63194;BME280;49289;51.670;5.624;2022-12-18T01:42:33;103014.35;;;0.52;55.81
63194;BME280;49289;51.670;5.624;2022-12-18T01:46:38;102991.53;;;0.41;55.75
63194;BME280;49289;51.670;5.624;2022-12-18T01:48:26;103007.45;;;0.45;56.14
63194;BME280;49289;51.670;5.624;2022-12-18T01:50:16;103003.33;;;0.48;55.99
63194;BME280;49289;51.670;5.624;2022-12-18T01:52:02;103005.31;;;0.47;56.03
63194;BME280;49289;51.670;5.624;2022-12-18T01:53:49;103003.31;;;0.40;56.03
63194;BME280;49289;51.670;5.624;2022-12-18T01:55:36;103007.41;;;0.41;55.93
63194;BME280;49289;51.670;5.624;2022-12-18T01:57:23;102985.19;;;0.22;56.15
63194;BME280;49289;51.670;5.624;2022-12-18T01:59:11;102984.00;;;0.22;56.24
63194;BME280;49289;51.670;5.624;2022-12-18T02:00:59;103002.68;;;0.39;56.21
63194;BME280;49289;51.670;5.624;2022-12-18T02:02:48;103009.20;;;0.39;56.17
63194;BME280;49289;51.670;5.624;2022-12-18T02:04:36;103011.25;;;0.43;56.03
63194;BME280;49289;51.670;5.624;2022-12-18T02:06:26;102993.38;;;0.29;56.17
63194;BME280;49289;51.670;5.624;2022-12-18T02:08:15;103007.10;;;0.34;56.27
63194;BME280;49289;51.670;5.624;2022-12-18T02:10:03;103008.02;;;0.35;56.29
63194;BME280;49289;51.670;5.624;2022-12-18T02:11:53;102991.14;;;0.26;56.21
63194;BME280;49289;51.670;5.624;2022-12-18T02:13:43;103005.25;;;0.21;56.45
63194;BME280;49289;51.670;5.624;2022-12-18T02:15:31;102987.72;;;0.09;56.57
63194;BME280;49289;51.670;5.624;2022-12-18T02:17:18;102986.05;;;0.22;56.42
63194;BME280;49289;51.670;5.624;2022-12-18T02:19:06;103006.63;;;0.36;56.23
63194;BME280;49289;51.670;5.624;2022-12-18T02:20:52;102999.32;;;0.37;56.26
63194;BME280;49289;51.670;5.624;2022-12-18T02:22:41;102985.95;;;0.29;56.19
63194;BME280;49289;51.670;5.624;2022-12-18T02:24:32;103005.22;;;0.34;56.27
63194;BME280;49289;51.670;5.624;2022-12-18T02:26:25;102982.45;;;0.24;56.31
63194;BME280;49289;51.670;5.624;2022-12-18T02:28:13;102986.77;;;0.17;56.57
63194;BME280;49289;51.670;5.624;2022-12-18T02:30:01;103006.17;;;0.33;56.40
63194;BME280;49289;51.670;5.624;2022-12-18T02:31:51;103009.48;;;0.43;56.13
63194;BME280;49289;51.670;5.624;2022-12-18T02:33:37;103007.20;;;0.42;56.08
63194;BME280;49289;51.670;5.624;2022-12-18T02:35:26;102989.31;;;0.37;55.95
63194;BME280;49289;51.670;5.624;2022-12-18T02:37:15;102984.58;;;0.32;55.76
63194;BME280;49289;51.670;5.624;2022-12-18T02:39:02;103001.58;;;0.45;55.70
63194;BME280;49289;51.670;5.624;2022-12-18T02:40:50;103006.79;;;0.43;55.69
63194;BME280;49289;51.670;5.624;2022-12-18T02:42:38;103002.52;;;0.42;55.65
63194;BME280;49289;51.670;5.624;2022-12-18T02:44:27;103000.11;;;0.43;55.46
63194;BME280;49289;51.670;5.624;2022-12-18T02:46:31;102977.11;;;0.14;55.60
63194;BME280;49289;51.670;5.624;2022-12-18T02:48:19;102994.89;;;0.29;55.53
63194;BME280;49289;51.670;5.624;2022-12-18T02:50:08;102971.59;;;0.17;55.60
63194;BME280;49289;51.670;5.624;2022-12-18T02:52:03;102991.59;;;0.29;55.68
63194;BME280;49289;51.670;5.624;2022-12-18T02:53:47;102984.67;;;0.30;55.49
63194;BME280;49289;51.670;5.624;2022-12-18T02:55:39;102987.06;;;0.27;55.46
63194;BME280;49289;51.670;5.624;2022-12-18T02:57:27;102964.58;;;0.15;55.50
63194;BME280;49289;51.670;5.624;2022-12-18T02:59:13;102922.34;;;-0.14;55.45
63194;BME280;49289;51.670;5.624;2022-12-18T03:01:02;102980.20;;;0.00;56.09
63194;BME280;49289;51.670;5.624;2022-12-18T03:02:51;102974.82;;;0.01;56.21
63194;BME280;49289;51.670;5.624;2022-12-18T03:04:39;102961.39;;;0.09;55.92
63194;BME280;49289;51.670;5.624;2022-12-18T03:06:28;102957.52;;;0.02;55.84
63194;BME280;49289;51.670;5.624;2022-12-18T03:08:15;102984.59;;;0.15;55.86
63194;BME280;49289;51.670;5.624;2022-12-18T03:10:02;102979.95;;;0.18;55.59
63194;BME280;49289;51.670;5.624;2022-12-18T03:12:49;102985.97;;;0.12;55.49
63194;BME280;49289;51.670;5.624;2022-12-18T03:14:35;102983.29;;;0.08;55.59
63194;BME280;49289;51.670;5.624;2022-12-18T03:16:23;102980.61;;;0.09;55.30
63194;BME280;49289;51.670;5.624;2022-12-18T03:18:12;102956.92;;;-0.15;55.73
63194;BME280;49289;51.670;5.624;2022-12-18T03:19:59;102972.88;;;-0.01;55.69
63194;BME280;49289;51.670;5.624;2022-12-18T03:21:46;102954.94;;;-0.15;55.82
63194;BME280;49289;51.670;5.624;2022-12-18T03:23:34;102968.53;;;-0.01;55.63
63194;BME280;49289;51.670;5.624;2022-12-18T03:25:22;102958.87;;;-0.09;55.39
63194;BME280;49289;51.670;5.624;2022-12-18T03:27:11;102968.66;;;-0.10;55.75
63194;BME280;49289;51.670;5.624;2022-12-18T03:28:59;102966.62;;;-0.09;55.93
63194;BME280;49289;51.670;5.624;2022-12-18T03:30:46;102968.92;;;-0.04;55.72
63194;BME280;49289;51.670;5.624;2022-12-18T03:32:35;102972.03;;;-0.11;55.93
63194;BME280;49289;51.670;5.624;2022-12-18T03:34:23;102952.94;;;-0.32;56.09
63194;BME280;49289;51.670;5.624;2022-12-18T03:36:09;102949.77;;;-0.16;55.73
63194;BME280;49289;51.670;5.624;2022-12-18T03:37:56;102963.53;;;-0.06;55.96
63194;BME280;49289;51.670;5.624;2022-12-18T03:39:43;102947.95;;;-0.19;55.94
63194;BME280;49289;51.670;5.624;2022-12-18T03:41:31;102965.58;;;-0.11;56.16
63194;BME280;49289;51.670;5.624;2022-12-18T03:43:22;102947.70;;;-0.24;56.18
63194;BME280;49289;51.670;5.624;2022-12-18T03:45:08;102945.97;;;-0.30;56.34
63194;BME280;49289;51.670;5.624;2022-12-18T03:46:57;102959.08;;;-0.19;56.32
63194;BME280;49289;51.670;5.624;2022-12-18T03:48:46;102938.70;;;-0.20;56.12
63194;BME280;49289;51.670;5.624;2022-12-18T03:50:36;102929.51;;;-0.42;56.52
63194;BME280;49289;51.670;5.624;2022-12-18T03:52:23;102929.30;;;-0.39;56.53
63194;BME280;49289;51.670;5.624;2022-12-18T03:54:10;102945.53;;;-0.19;56.29
63194;BME280;49289;51.670;5.624;2022-12-18T03:55:59;102945.70;;;-0.13;56.33
63194;BME280;49289;51.670;5.624;2022-12-18T03:57:47;102943.17;;;-0.13;56.17
63194;BME280;49289;51.670;5.624;2022-12-18T03:59:35;102919.05;;;-0.32;56.49
63194;BME280;49289;51.670;5.624;2022-12-18T04:01:23;102912.71;;;-0.32;56.56
63194;BME280;49289;51.670;5.624;2022-12-18T04:03:09;102912.48;;;-0.39;56.69
63194;BME280;49289;51.670;5.624;2022-12-18T04:04:57;102917.28;;;-0.27;56.60
63194;BME280;49289;51.670;5.624;2022-12-18T04:06:45;102935.08;;;-0.05;56.17
63194;BME280;49289;51.670;5.624;2022-12-18T04:08:33;102933.42;;;0.03;55.93
63194;BME280;49289;51.670;5.624;2022-12-18T04:10:20;102911.02;;;-0.06;55.84
63194;BME280;49289;51.670;5.624;2022-12-18T04:12:07;102931.11;;;-0.04;55.87
63194;BME280;49289;51.670;5.624;2022-12-18T04:13:54;102928.88;;;-0.07;55.93
63194;BME280;49289;51.670;5.624;2022-12-18T04:15:41;102908.97;;;-0.25;55.96
63194;BME280;49289;51.670;5.624;2022-12-18T04:17:29;102921.64;;;-0.21;56.23
63194;BME280;49289;51.670;5.624;2022-12-18T04:19:18;102912.02;;;-0.22;56.28
63194;BME280;49289;51.670;5.624;2022-12-18T04:21:06;102893.78;;;-0.32;56.46
63194;BME280;49289;51.670;5.624;2022-12-18T04:22:53;102909.22;;;-0.22;56.39
63194;BME280;49289;51.670;5.624;2022-12-18T04:24:40;102889.38;;;-0.19;56.12
63194;BME280;49289;51.670;5.624;2022-12-18T04:26:29;102894.59;;;-0.20;56.11
63194;BME280;49289;51.670;5.624;2022-12-18T04:28:17;102901.95;;;-0.27;56.23
63194;BME280;49289;51.670;5.624;2022-12-18T04:30:04;102895.15;;;-0.18;56.14
63194;BME280;49289;51.670;5.624;2022-12-18T04:31:52;102917.48;;;0.03;56.04
63194;BME280;49289;51.670;5.624;2022-12-18T04:33:40;102909.34;;;-0.02;55.96
63194;BME280;49289;51.670;5.624;2022-12-18T04:35:29;102889.03;;;-0.16;56.20
63194;BME280;49289;51.670;5.624;2022-12-18T04:37:17;102904.70;;;-0.09;56.17
63194;BME280;49289;51.670;5.624;2022-12-18T04:39:05;102898.14;;;-0.08;56.30
63194;BME280;49289;51.670;5.624;2022-12-18T04:40:53;102902.65;;;-0.09;56.45
63194;BME280;49289;51.670;5.624;2022-12-18T04:43:17;102893.03;;;-0.21;56.47
63194;BME280;49289;51.670;5.624;2022-12-18T04:45:07;102905.41;;;-0.07;56.22
63194;BME280;49289;51.670;5.624;2022-12-18T04:46:57;102900.74;;;-0.01;56.12
63194;BME280;49289;51.670;5.624;2022-12-18T04:48:45;102922.11;;;0.14;55.85
63194;BME280;49289;51.670;5.624;2022-12-18T04:50:33;102925.17;;;0.08;55.93
63194;BME280;49289;51.670;5.624;2022-12-18T04:52:21;102927.55;;;0.15;55.70
63194;BME280;49289;51.670;5.624;2022-12-18T04:54:09;102930.60;;;0.13;55.67
63194;BME280;49289;51.670;5.624;2022-12-18T04:56:01;102915.41;;;-0.03;55.78
63194;BME280;49289;51.670;5.624;2022-12-18T04:57:28;102926.44;;;0.05;55.82
63194;BME280;49289;51.670;5.624;2022-12-18T04:59:15;102910.37;;;-0.12;55.80
63194;BME280;49289;51.670;5.624;2022-12-18T05:01:04;102936.54;;;0.04;55.83
63194;BME280;49289;51.670;5.624;2022-12-18T05:02:52;102941.50;;;0.05;55.75
63194;BME280;49289;51.670;5.624;2022-12-18T05:04:39;102943.98;;;0.01;55.79
63194;BME280;49289;51.670;5.624;2022-12-18T05:06:26;102927.97;;;-0.05;55.74
63194;BME280;49289;51.670;5.624;2022-12-18T05:08:14;102951.36;;;0.01;55.74
63194;BME280;49289;51.670;5.624;2022-12-18T05:10:03;102954.84;;;0.04;55.54
63194;BME280;49289;51.670;5.624;2022-12-18T05:11:51;102955.55;;;0.00;55.60
63194;BME280;49289;51.670;5.624;2022-12-18T05:13:39;102960.80;;;-0.04;55.64
63194;BME280;49289;51.670;5.624;2022-12-18T05:15:27;102963.40;;;-0.08;55.69
63194;BME280;49289;51.670;5.624;2022-12-18T05:17:14;102943.31;;;-0.15;55.36
63194;BME280;49289;51.670;5.624;2022-12-18T05:19:01;102966.05;;;-0.01;55.31
63194;BME280;49289;51.670;5.624;2022-12-18T05:20:48;102949.83;;;-0.19;55.37
63194;BME280;49289;51.670;5.624;2022-12-18T05:22:35;102964.20;;;-0.09;55.28
63194;BME280;49289;51.670;5.624;2022-12-18T05:24:23;102967.75;;;-0.08;55.20
63194;BME280;49289;51.670;5.624;2022-12-18T05:26:14;102945.46;;;-0.27;55.23
63194;BME280;49289;51.670;5.624;2022-12-18T05:27:59;102969.16;;;-0.13;55.27
63194;BME280;49289;51.670;5.624;2022-12-18T05:29:47;102968.70;;;-0.20;55.44
63194;BME280;49289;51.670;5.624;2022-12-18T05:31:36;102945.93;;;-0.29;55.39
63194;BME280;49289;51.670;5.624;2022-12-18T05:33:24;102961.53;;;-0.28;55.75
63194;BME280;49289;51.670;5.624;2022-12-18T05:35:12;102954.30;;;-0.30;55.62
63194;BME280;49289;51.670;5.624;2022-12-18T05:36:59;102934.05;;;-0.34;55.54
63194;BME280;49289;51.670;5.624;2022-12-18T05:38:46;102930.38;;;-0.39;55.44
63194;BME280;49289;51.670;5.624;2022-12-18T05:40:33;102947.48;;;-0.28;55.64
63194;BME280;49289;51.670;5.624;2022-12-18T05:42:20;102942.30;;;-0.32;55.81
63194;BME280;49289;51.670;5.624;2022-12-18T05:44:08;102945.10;;;-0.40;55.90
63194;BME280;49289;51.670;5.624;2022-12-18T05:45:57;102947.16;;;-0.45;56.02
63194;BME280;49289;51.670;5.624;2022-12-18T05:47:45;102945.19;;;-0.32;55.76
63194;BME280;49289;51.670;5.624;2022-12-18T05:49:33;102944.48;;;-0.29;55.66
63194;BME280;49289;51.670;5.624;2022-12-18T05:51:21;102935.40;;;-0.37;56.06
63194;BME280;49289;51.670;5.624;2022-12-18T05:53:09;102918.89;;;-0.49;56.14
63194;BME280;49289;51.670;5.624;2022-12-18T05:54:59;102907.27;;;-0.40;56.15
63194;BME280;49289;51.670;5.624;2022-12-18T05:56:47;102930.30;;;-0.32;55.89
63194;BME280;49289;51.670;5.624;2022-12-18T05:58:35;102937.34;;;-0.16;55.80
63194;BME280;49289;51.670;5.624;2022-12-18T06:00:24;102929.97;;;-0.16;55.86
63194;BME280;49289;51.670;5.624;2022-12-18T06:02:11;102928.66;;;-0.17;56.00
63194;BME280;49289;51.670;5.624;2022-12-18T06:03:58;102907.23;;;-0.31;56.14
63194;BME280;49289;51.670;5.624;2022-12-18T06:05:47;102916.64;;;-0.32;56.60
63194;BME280;49289;51.670;5.624;2022-12-18T06:07:35;102919.25;;;-0.29;56.57
63194;BME280;49289;51.670;5.624;2022-12-18T06:09:23;102914.09;;;-0.24;56.56
63194;BME280;49289;51.670;5.624;2022-12-18T06:11:10;102908.95;;;-0.21;56.45
63194;BME280;49289;51.670;5.624;2022-12-18T06:12:57;102889.30;;;-0.34;56.46
63194;BME280;49289;51.670;5.624;2022-12-18T06:14:44;102898.77;;;-0.23;56.36
63194;BME280;49289;51.670;5.624;2022-12-18T06:16:31;102879.34;;;-0.25;56.26
63194;BME280;49289;51.670;5.624;2022-12-18T06:18:18;102904.37;;;-0.10;56.07
63194;BME280;49289;51.670;5.624;2022-12-18T06:20:05;102902.67;;;-0.07;55.99
63194;BME280;49289;51.670;5.624;2022-12-18T06:21:52;102898.12;;;-0.16;56.24
63194;BME280;49289;51.670;5.624;2022-12-18T06:23:39;102902.59;;;-0.15;56.39
63194;BME280;49289;51.670;5.624;2022-12-18T06:25:26;102903.74;;;-0.13;56.14
63194;BME280;49289;51.670;5.624;2022-12-18T06:27:14;102902.93;;;-0.21;56.17
63194;BME280;49289;51.670;5.624;2022-12-18T06:29:02;102901.69;;;-0.14;56.20
63194;BME280;49289;51.670;5.624;2022-12-18T06:30:50;102902.27;;;-0.14;56.12
63194;BME280;49289;51.670;5.624;2022-12-18T06:32:38;102896.41;;;-0.20;56.29
63194;BME280;49289;51.670;5.624;2022-12-18T06:34:27;102885.92;;;-0.22;56.15
63194;BME280;49289;51.670;5.624;2022-12-18T06:36:15;102890.67;;;-0.19;55.92
63194;BME280;49289;51.670;5.624;2022-12-18T06:38:03;102912.06;;;-0.09;56.06
63194;BME280;49289;51.670;5.624;2022-12-18T06:39:51;102888.22;;;-0.24;56.11
63194;BME280;49289;51.670;5.624;2022-12-18T06:41:39;102894.89;;;-0.24;56.12
63194;BME280;49289;51.670;5.624;2022-12-18T06:43:28;102896.85;;;-0.32;56.31
63194;BME280;49289;51.670;5.624;2022-12-18T06:45:17;102904.37;;;-0.22;56.23
63194;BME280;49289;51.670;5.624;2022-12-18T06:47:04;102887.94;;;-0.25;56.03
63194;BME280;49289;51.670;5.624;2022-12-18T06:48:54;102884.91;;;-0.22;55.95
63194;BME280;49289;51.670;5.624;2022-12-18T06:50:41;102881.17;;;-0.24;56.08
63194;BME280;49289;51.670;5.624;2022-12-18T06:52:28;102895.34;;;-0.14;55.95
63194;BME280;49289;51.670;5.624;2022-12-18T06:54:17;102873.52;;;-0.26;56.16
63194;BME280;49289;51.670;5.624;2022-12-18T06:56:06;102893.27;;;-0.18;56.29
63194;BME280;49289;51.670;5.624;2022-12-18T06:57:52;102892.80;;;-0.15;56.08
63194;BME280;49289;51.670;5.624;2022-12-18T06:59:39;102896.68;;;-0.09;55.96
63194;BME280;49289;51.670;5.624;2022-12-18T07:01:26;102876.16;;;-0.25;56.16
63194;BME280;49289;51.670;5.624;2022-12-18T07:03:14;102890.86;;;-0.11;55.97
63194;BME280;49289;51.670;5.624;2022-12-18T07:05:02;102865.61;;;-0.20;55.92
63194;BME280;49289;51.670;5.624;2022-12-18T07:06:48;102882.89;;;-0.11;56.08
63194;BME280;49289;51.670;5.624;2022-12-18T07:08:36;102876.31;;;-0.12;56.00
63194;BME280;49289;51.670;5.624;2022-12-18T07:10:25;102884.45;;;-0.17;56.19
63194;BME280;49289;51.670;5.624;2022-12-18T07:12:13;102866.77;;;-0.23;56.23
63194;BME280;49289;51.670;5.624;2022-12-18T07:14:01;102860.22;;;-0.21;55.99
63194;BME280;49289;51.670;5.624;2022-12-18T07:15:48;102856.16;;;-0.24;56.16
63194;BME280;49289;51.670;5.624;2022-12-18T07:17:36;102876.72;;;-0.09;56.27
63194;BME280;49289;51.670;5.624;2022-12-18T07:19:25;102874.72;;;-0.11;56.47
63194;BME280;49289;51.670;5.624;2022-12-18T07:21:15;102845.47;;;-0.15;56.31
63194;BME280;49289;51.670;5.624;2022-12-18T07:23:03;102865.22;;;0.06;56.21
63194;BME280;49289;51.670;5.624;2022-12-18T07:24:51;102862.32;;;0.08;56.03
63194;BME280;49289;51.670;5.624;2022-12-18T07:26:39;102864.69;;;0.02;56.03
63194;BME280;49289;51.670;5.624;2022-12-18T07:28:26;102844.83;;;-0.09;56.19
63194;BME280;49289;51.670;5.624;2022-12-18T07:30:14;102844.06;;;-0.04;56.09
63194;BME280;49289;51.670;5.624;2022-12-18T07:32:01;102844.34;;;-0.09;56.08
63194;BME280;49289;51.670;5.624;2022-12-18T07:33:51;102851.65;;;-0.16;56.35
63194;BME280;49289;51.670;5.624;2022-12-18T07:35:39;102841.09;;;-0.17;56.47
63194;BME280;49289;51.670;5.624;2022-12-18T07:37:26;102862.82;;;0.03;56.40
63194;BME280;49289;51.670;5.624;2022-12-18T07:39:13;102857.14;;;-0.04;56.51
63194;BME280;49289;51.670;5.624;2022-12-18T07:41:00;102855.91;;;-0.15;57.03
63194;BME280;49289;51.670;5.624;2022-12-18T07:42:47;102856.58;;;0.03;56.76
63194;BME280;49289;51.670;5.624;2022-12-18T07:44:35;102844.23;;;-0.03;56.90
63194;BME280;49289;51.670;5.624;2022-12-18T07:46:25;102824.81;;;0.00;56.99
63194;BME280;49289;51.670;5.624;2022-12-18T07:48:13;102818.73;;;-0.15;57.22
63194;BME280;49289;51.670;5.624;2022-12-18T07:50:00;102833.27;;;0.09;57.06
63194;BME280;49289;51.670;5.624;2022-12-18T07:51:47;102825.97;;;0.18;56.95
63194;BME280;49289;51.670;5.624;2022-12-18T07:53:35;102821.86;;;0.26;56.90
63194;BME280;49289;51.670;5.624;2022-12-18T07:55:22;102818.24;;;0.32;56.76
63194;BME280;49289;51.670;5.624;2022-12-18T07:57:10;102821.12;;;0.36;56.77
63194;BME280;49289;51.670;5.624;2022-12-18T07:58:59;102819.59;;;0.33;56.96
63194;BME280;49289;51.670;5.624;2022-12-18T08:00:47;102818.45;;;0.40;57.15
63194;BME280;49289;51.670;5.624;2022-12-18T08:02:36;102780.23;;;0.33;56.98
63194;BME280;49289;51.670;5.624;2022-12-18T08:04:24;102786.26;;;0.31;57.39
63194;BME280;49289;51.670;5.624;2022-12-18T08:06:11;102799.52;;;0.46;57.42
63194;BME280;49289;51.670;5.624;2022-12-18T08:08:00;102799.36;;;0.56;57.20
63194;BME280;49289;51.670;5.624;2022-12-18T08:09:48;102801.44;;;0.52;57.68
63194;BME280;49289;51.670;5.624;2022-12-18T08:11:36;102789.85;;;0.38;58.18
63194;BME280;49289;51.670;5.624;2022-12-18T08:13:24;102789.83;;;0.62;57.64
63194;BME280;49289;51.670;5.624;2022-12-18T08:15:13;102787.96;;;0.65;57.71
63194;BME280;49289;51.670;5.624;2022-12-18T08:17:00;102808.03;;;0.73;57.75
63194;BME280;49289;51.670;5.624;2022-12-18T08:18:47;102804.97;;;0.91;57.75
63194;BME280;49289;51.670;5.624;2022-12-18T08:20:34;102792.97;;;0.94;57.46
63194;BME280;49289;51.670;5.624;2022-12-18T08:22:22;102810.30;;;1.13;57.49
63194;BME280;49289;51.670;5.624;2022-12-18T08:24:11;102807.66;;;1.11;57.43
63194;BME280;49289;51.670;5.624;2022-12-18T08:26:00;102810.17;;;0.98;57.93
63194;BME280;49289;51.670;5.624;2022-12-18T08:27:48;102803.02;;;1.10;57.84
63194;BME280;49289;51.670;5.624;2022-12-18T08:29:37;102800.72;;;1.25;57.31
63194;BME280;49289;51.670;5.624;2022-12-18T08:31:26;102824.86;;;1.50;57.14
63194;BME280;49289;51.670;5.624;2022-12-18T08:33:14;102822.86;;;1.38;57.47
63194;BME280;49289;51.670;5.624;2022-12-18T08:35:02;102817.38;;;1.23;57.61
63194;BME280;49289;51.670;5.624;2022-12-18T08:36:49;102796.52;;;1.25;57.52
63194;BME280;49289;51.670;5.624;2022-12-18T08:38:36;102788.39;;;1.32;57.42
63194;BME280;49289;51.670;5.624;2022-12-18T08:40:24;102809.02;;;1.58;57.32
63194;BME280;49289;51.670;5.624;2022-12-18T08:42:12;102814.44;;;1.46;57.45
63194;BME280;49289;51.670;5.624;2022-12-18T08:44:01;102825.34;;;1.39;57.77
63194;BME280;49289;51.670;5.624;2022-12-18T08:45:50;102831.94;;;1.56;57.57
63194;BME280;49289;51.670;5.624;2022-12-18T08:47:37;102827.03;;;1.59;57.45
63194;BME280;49289;51.670;5.624;2022-12-18T08:49:25;102802.84;;;1.41;57.55
63194;BME280;49289;51.670;5.624;2022-12-18T08:51:12;102812.95;;;1.59;57.60
63194;BME280;49289;51.670;5.624;2022-12-18T08:52:59;102779.81;;;1.43;57.81
63194;BME280;49289;51.670;5.624;2022-12-18T08:54:47;102769.91;;;1.58;57.43
63194;BME280;49289;51.670;5.624;2022-12-18T08:56:37;102768.71;;;1.46;57.74
63194;BME280;49289;51.670;5.624;2022-12-18T08:58:25;102790.66;;;1.65;57.53
63194;BME280;49289;51.670;5.624;2022-12-18T09:00:14;102800.38;;;1.58;57.95
63194;BME280;49289;51.670;5.624;2022-12-18T09:02:02;102796.30;;;1.90;57.38
63194;BME280;49289;51.670;5.624;2022-12-18T09:03:50;102793.63;;;2.06;56.98
63194;BME280;49289;51.670;5.624;2022-12-18T09:05:38;102792.45;;;2.03;57.21
63194;BME280;49289;51.670;5.624;2022-12-18T09:07:27;102775.55;;;2.06;57.00
63194;BME280;49289;51.670;5.624;2022-12-18T09:09:15;102769.50;;;2.05;56.94
63194;BME280;49289;51.670;5.624;2022-12-18T09:11:02;102766.95;;;2.29;56.54
63194;BME280;49289;51.670;5.624;2022-12-18T09:12:50;102789.23;;;2.53;56.48
63194;BME280;49289;51.670;5.624;2022-12-18T09:14:38;102773.86;;;2.60;56.15
63194;BME280;49289;51.670;5.624;2022-12-18T09:16:27;102795.41;;;2.81;55.76
63194;BME280;49289;51.670;5.624;2022-12-18T09:18:15;102771.00;;;2.67;55.81
63194;BME280;49289;51.670;5.624;2022-12-18T09:20:02;102768.02;;;2.71;55.45
63194;BME280;49289;51.670;5.624;2022-12-18T09:21:49;102786.70;;;2.74;55.53
63194;BME280;49289;51.670;5.624;2022-12-18T09:23:37;102780.24;;;2.68;55.81
63194;BME280;49289;51.670;5.624;2022-12-18T09:25:28;102779.13;;;2.77;55.48
63194;BME280;49289;51.670;5.624;2022-12-18T09:27:14;102801.70;;;2.99;55.35
63194;BME280;49289;51.670;5.624;2022-12-18T09:29:01;102812.53;;;2.84;55.59
63194;BME280;49289;51.670;5.624;2022-12-18T09:30:49;102807.38;;;3.07;55.35